Time;durP1;ratioP1;P1;durP2;ratioP2;P2;SDS_P1;SDS_P2;PMS_P1;PMS_P2;Temp;Humidity;BMP_temperature;BMP_pressure;BME280_temperature;BME280_humidity;BME280_pressure;Samples;Min_cycle;Max_cycle;Signal;HPM_P1;HPM_P2
2022/11/14 00:00:49;;;;;;;136.80;96.28;;;;;;;6.27;100.00;101903.91;4988310;28;20038;-78
2022/11/14 00:03:15;;;;;;;123.05;96.00;;;;;;;6.30;100.00;101909.25;4988120;28;20076;-77
2022/11/14 00:05:43;;;;;;;129.18;96.07;;;;;;;5.47;100.00;101764.19;4998461;28;20491;-77
2022/11/14 00:08:21;;;;;;;146.98;104.35;;;;;;;6.18;100.00;101913.06;5004586;28;20092;-77
2022/11/14 00:10:48;;;;;;;156.60;117.03;;;;;;;5.79;100.00;101894.88;5012468;28;20046;-76
2022/11/14 00:13:14;;;;;;;89.18;56.20;;;;;;;5.61;100.00;101807.31;5028943;28;20037;-79
2022/11/14 00:15:40;;;;;;;82.07;49.80;;;;;;;5.86;100.00;101916.03;5019893;28;20459;-76
2022/11/14 00:18:06;;;;;;;91.38;52.90;;;;;;;4.88;100.00;101736.47;5000939;28;20030;-82
2022/11/14 00:20:32;;;;;;;132.25;96.22;;;;;;;5.69;100.00;101907.50;5008621;28;20909;-79
2022/11/14 00:22:57;;;;;;;82.07;54.05;;;;;;;4.80;100.00;101759.50;5008263;28;20057;-78
2022/11/14 00:25:23;;;;;;;82.47;54.55;;;;;;;5.67;100.00;101906.53;5008059;28;20071;-79
2022/11/14 00:27:48;;;;;;;146.63;97.88;;;;;;;4.35;100.00;101741.88;4995119;28;20133;-79
2022/11/14 00:30:14;;;;;;;120.20;61.35;;;;;;;4.04;100.00;101775.00;4970504;28;20521;-80
2022/11/14 00:32:39;;;;;;;85.22;48.30;;;;;;;3.73;100.00;101807.25;4989246;28;20061;-77
2022/11/14 00:35:05;;;;;;;111.07;51.25;;;;;;;3.58;100.00;101784.91;5007196;28;20084;-79
2022/11/14 00:37:31;;;;;;;217.38;55.83;;;;;;;3.72;100.00;101757.06;5007172;28;20049;-80
2022/11/14 00:39:58;;;;;;;158.52;52.53;;;;;;;4.49;100.00;101919.25;5006469;28;20050;-78
2022/11/14 00:42:23;;;;;;;101.55;45.28;;;;;;;4.23;100.00;101860.81;5011367;28;20045;-79
2022/11/14 00:44:49;;;;;;;57.75;36.95;;;;;;;4.48;100.00;101921.78;5011373;28;20033;-78
2022/11/14 00:47:14;;;;;;;50.70;34.70;;;;;;;3.78;100.00;101787.59;5004488;28;20042;-81
2022/11/14 00:49:39;;;;;;;216.10;46.92;;;;;;;3.67;100.00;101810.41;4992039;28;20100;-80
2022/11/14 00:52:05;;;;;;;81.45;34.97;;;;;;;4.57;100.00;101901.44;4991984;28;20049;-80
2022/11/14 00:54:30;;;;;;;133.90;35.38;;;;;;;4.56;100.00;101905.72;4991394;28;20054;-79
2022/11/14 00:56:56;;;;;;;186.73;47.88;;;;;;;4.16;100.00;101913.28;5005831;28;20939;-78
2022/11/14 00:59:21;;;;;;;236.70;45.35;;;;;;;3.42;100.00;101808.31;4991791;28;20522;-82
2022/11/14 01:01:47;;;;;;;205.82;44.72;;;;;;;3.79;100.00;101912.31;4997806;28;20112;-80
2022/11/14 01:04:12;;;;;;;453.33;67.72;;;;;;;2.66;100.00;101748.09;5009684;28;20049;-79
2022/11/14 01:06:38;;;;;;;253.85;55.78;;;;;;;3.22;100.00;101829.72;5008168;28;20046;-82
2022/11/14 01:09:03;;;;;;;70.35;29.45;;;;;;;2.29;100.00;101743.50;5004894;28;20545;-79
2022/11/14 01:11:29;;;;;;;668.03;98.57;;;;;;;3.32;100.00;101902.88;5010100;28;20416;-81
2022/11/14 01:13:54;;;;;;;296.38;47.50;;;;;;;2.00;100.00;101700.50;5017644;28;20033;-82
2022/11/14 01:16:20;;;;;;;283.30;54.08;;;;;;;3.06;100.00;101864.31;5009829;28;20147;-83
2022/11/14 01:18:45;;;;;;;468.50;69.50;;;;;;;3.30;100.00;101899.34;4992244;28;20049;-83
2022/11/14 01:21:13;;;;;;;528.38;66.47;;;;;;;2.89;100.00;101762.28;4990945;28;20475;-84
2022/11/14 01:23:39;;;;;;;742.75;86.63;;;;;;;2.85;100.00;101786.25;4990055;28;20725;-82
2022/11/14 01:26:07;;;;;;;794.53;104.05;;;;;;;2.50;100.00;101715.28;4997925;28;20569;-84
2022/11/14 01:28:33;;;;;;;261.75;53.13;;;;;;;3.38;100.00;101879.00;4994459;28;20077;-84
2022/11/14 01:31:15;;;;;;;291.23;50.92;;;;;;;3.53;100.00;101900.53;5014549;28;20038;-81
2022/11/14 01:33:41;;;;;;;709.67;91.00;;;;;;;3.48;100.00;101865.69;5022982;28;20046;-81
2022/11/14 01:36:07;;;;;;;51.17;31.48;;;;;;;2.04;100.00;101619.63;5006351;28;20092;-81
2022/11/14 01:38:34;;;;;;;142.10;39.50;;;;;;;3.65;100.00;101887.31;4995760;28;20038;-80
2022/11/14 01:41:00;;;;;;;360.60;52.50;;;;;;;2.83;100.00;101730.84;4992423;28;20141;-82
2022/11/14 01:43:27;;;;;;;248.93;49.10;;;;;;;3.62;100.00;101897.53;5010200;28;20133;-78
2022/11/14 01:46:00;;;;;;;237.98;53.40;;;;;;;3.72;100.00;101898.91;5009151;28;20054;-76
2022/11/14 01:48:58;;;;;;;194.45;45.90;;;;;;;3.74;100.00;101894.69;5009048;28;20054;-78
2022/11/14 01:51:31;;;;;;;116.30;41.05;;;;;;;3.34;100.00;101849.38;4977630;28;20062;-80
2022/11/14 01:54:02;;;;;;;125.45;40.95;;;;;;;2.98;100.00;101767.97;4996871;28;20046;-79
2022/11/14 01:56:38;;;;;;;135.20;41.03;;;;;;;3.13;100.00;101815.44;5009218;28;20088;-77
2022/11/14 01:59:11;;;;;;;205.35;45.10;;;;;;;3.67;100.00;101898.66;4991796;28;20086;-75
2022/11/14 02:01:43;;;;;;;56.83;33.50;;;;;;;2.62;100.00;101726.34;5001440;28;20046;-79
2022/11/14 02:04:10;;;;;;;72.88;34.72;;;;;;;3.19;100.00;101814.00;5009154;28;20092;-79
2022/11/14 02:06:37;;;;;;;57.63;33.67;;;;;;;2.67;100.00;101713.59;5008192;28;20045;-80
2022/11/14 02:09:05;;;;;;;61.67;36.80;;;;;;;3.43;100.00;101859.38;4992033;28;20038;-76
2022/11/14 02:11:36;;;;;;;54.92;32.55;;;;;;;3.24;100.00;101849.72;5009873;28;20092;-76
2022/11/14 02:14:03;;;;;;;56.70;37.08;;;;;;;2.61;100.00;101750.44;5015188;28;20049;-78
2022/11/14 02:16:28;;;;;;;52.60;31.33;;;;;;;3.07;100.00;101841.06;5009638;28;20108;-77
2022/11/14 02:18:54;;;;;;;66.28;38.53;;;;;;;2.69;100.00;101771.59;5008443;28;20057;-77
2022/11/14 02:21:20;;;;;;;49.55;34.35;;;;;;;2.93;100.00;101832.53;5009251;28;20034;-76
2022/11/14 02:23:45;;;;;;;51.28;30.80;;;;;;;2.00;100.00;101678.09;5009170;28;20034;-78
2022/11/14 02:26:11;;;;;;;47.60;30.65;;;;;;;2.94;100.00;101874.91;5008681;28;20049;-80
2022/11/14 02:28:36;;;;;;;41.00;31.23;;;;;;;3.00;100.00;101888.22;5009167;28;20060;-79
2022/11/14 02:31:02;;;;;;;48.95;32.40;;;;;;;3.06;100.00;101885.03;5017918;28;20037;-78
2022/11/14 02:33:27;;;;;;;65.40;36.47;;;;;;;2.36;100.00;101708.50;5021288;28;20030;-78
2022/11/14 02:35:53;;;;;;;44.75;31.83;;;;;;;3.56;100.00;101886.84;4990111;28;20246;-77
2022/11/14 02:38:18;;;;;;;51.30;31.42;;;;;;;3.78;100.00;101881.94;4989355;28;20141;-77
2022/11/14 02:40:44;;;;;;;76.95;32.03;;;;;;;2.94;100.00;101725.41;4989663;28;20038;-76
2022/11/14 02:43:09;;;;;;;64.53;32.35;;;;;;;3.31;100.00;101832.78;4992049;28;20035;-81
2022/11/14 02:45:35;;;;;;;54.83;30.17;;;;;;;3.04;100.00;101741.44;5006968;28;20592;-76
2022/11/14 02:48:00;;;;;;;65.07;32.20;;;;;;;3.85;100.00;101866.69;4991806;28;20551;-77
2022/11/14 02:50:26;;;;;;;83.78;34.47;;;;;;;3.38;100.00;101858.25;5008652;28;20445;-76
2022/11/14 02:52:52;;;;;;;58.35;32.40;;;;;;;3.07;100.00;101820.31;5007130;28;20569;-78
2022/11/14 02:55:19;;;;;;;53.75;30.38;;;;;;;3.62;100.00;101855.13;4993631;28;20181;-76
2022/11/14 02:57:44;;;;;;;51.28;27.67;;;;;;;3.89;100.00;101886.81;5008463;28;20053;-77
2022/11/14 03:00:13;;;;;;;52.35;30.77;;;;;;;3.71;100.00;101864.28;5007216;28;20038;-78
2022/11/14 03:02:39;;;;;;;70.47;33.35;;;;;;;2.23;100.00;101619.78;5009141;28;20129;-78
2022/11/14 03:05:04;;;;;;;64.40;32.25;;;;;;;3.14;100.00;101786.09;5006797;28;20534;-74
2022/11/14 03:07:30;;;;;;;59.97;31.58;;;;;;;3.05;100.00;101751.03;5006598;28;20147;-80
2022/11/14 03:09:55;;;;;;;74.25;31.55;;;;;;;3.52;100.00;101903.97;5008338;28;20037;-79
2022/11/14 03:12:21;;;;;;;76.53;30.80;;;;;;;2.84;100.00;101755.97;5007623;28;20026;-78
2022/11/14 03:14:46;;;;;;;54.45;29.55;;;;;;;2.59;100.00;101766.72;5015756;28;20188;-79
2022/11/14 03:17:11;;;;;;;63.65;27.65;;;;;;;3.55;100.00;101919.69;5007749;28;20062;-79
2022/11/14 03:19:37;;;;;;;55.47;31.65;;;;;;;2.89;100.00;101767.47;5022300;28;20080;-76
2022/11/14 03:22:03;;;;;;;86.78;29.83;;;;;;;3.94;100.00;101917.38;5015605;28;20666;-77
2022/11/14 03:24:28;;;;;;;54.05;31.25;;;;;;;3.65;100.00;101853.56;5011072;28;20034;-77
2022/11/14 03:26:54;;;;;;;58.63;28.88;;;;;;;4.04;100.00;101907.47;5008666;28;20034;-79
2022/11/14 03:29:19;;;;;;;60.13;31.33;;;;;;;4.17;100.00;101913.34;5008139;28;20060;-78
2022/11/14 03:31:45;;;;;;;66.57;29.63;;;;;;;4.28;100.00;101910.41;5019769;28;20492;-76
2022/11/14 03:34:10;;;;;;;54.95;26.65;;;;;;;4.29;100.00;101907.00;5007541;28;20050;-80
2022/11/14 03:36:36;;;;;;;68.20;32.75;;;;;;;3.43;100.00;101789.31;5008021;28;20045;-82
2022/11/14 03:39:03;;;;;;;54.80;26.80;;;;;;;3.45;100.00;101761.75;5008733;28;20136;-81
2022/11/14 03:41:28;;;;;;;55.92;29.20;;;;;;;3.46;100.00;101763.50;5008175;28;20065;-81
2022/11/14 03:43:54;;;;;;;50.88;25.92;;;;;;;3.51;100.00;101798.41;5000723;28;20050;-81
2022/11/14 03:46:19;;;;;;;58.45;27.70;;;;;;;3.44;100.00;101769.44;5007776;28;20109;-80
2022/11/14 03:48:45;;;;;;;56.78;27.75;;;;;;;3.30;100.00;101742.78;5007481;28;20405;-80
2022/11/14 03:51:10;;;;;;;61.05;29.17;;;;;;;4.23;100.00;101899.78;5006790;28;20133;-79
2022/11/14 03:53:36;;;;;;;54.40;27.33;;;;;;;3.28;100.00;101760.88;4989269;28;20050;-80
2022/11/14 03:56:01;;;;;;;52.40;29.85;;;;;;;4.21;100.00;101902.31;4990150;28;20702;-80
2022/11/14 03:58:26;;;;;;;59.38;31.88;;;;;;;3.77;100.00;101820.47;5007332;28;20057;-81
2022/11/14 04:00:54;;;;;;;49.08;25.70;;;;;;;4.24;100.00;101865.19;5007024;28;20041;-79
2022/11/14 04:03:20;;;;;;;49.38;24.30;;;;;;;4.37;100.00;101877.06;4996096;28;20137;-80
2022/11/14 04:05:46;;;;;;;49.63;28.45;;;;;;;4.48;100.00;101888.00;4986544;28;20121;-77
2022/11/14 04:08:11;;;;;;;62.85;28.10;;;;;;;4.18;100.00;101863.16;4998043;28;20671;-81
2022/11/14 04:10:37;;;;;;;57.58;30.23;;;;;;;4.50;100.00;101891.56;5007244;28;20794;-79
2022/11/14 04:13:04;;;;;;;43.83;26.02;;;;;;;4.53;100.00;101873.50;5012965;28;20050;-80
2022/11/14 04:15:30;;;;;;;49.80;27.20;;;;;;;4.68;100.00;101879.44;5011324;28;20046;-83
2022/11/14 04:17:55;;;;;;;46.10;28.88;;;;;;;3.85;100.00;101762.84;5007332;28;20041;-82
2022/11/14 04:20:21;;;;;;;51.58;26.58;;;;;;;3.97;100.00;101766.03;5006971;28;20049;-81
2022/11/14 04:22:46;;;;;;;53.38;30.75;;;;;;;4.32;100.00;101830.06;5005872;28;20076;-80
2022/11/14 04:25:12;;;;;;;54.05;26.15;;;;;;;4.13;100.00;101791.94;5007112;28;20052;-80
2022/11/14 04:27:38;;;;;;;54.72;28.80;;;;;;;4.82;100.00;101916.50;5005635;28;20033;-80
2022/11/14 04:30:04;;;;;;;54.78;27.30;;;;;;;4.60;100.00;101879.06;5007089;28;20468;-78
2022/11/14 04:32:30;;;;;;;58.72;28.38;;;;;;;4.66;100.00;101862.91;5018712;28;20030;-80
2022/11/14 04:34:55;;;;;;;48.72;29.20;;;;;;;4.04;100.00;101794.06;5006812;28;20061;-82
2022/11/14 04:37:21;;;;;;;55.03;31.63;;;;;;;4.86;100.00;101887.22;5007059;28;20567;-81
2022/11/14 04:39:46;;;;;;;45.17;26.90;;;;;;;4.83;100.00;101905.28;5006607;28;20058;-80
2022/11/14 04:42:12;;;;;;;38.67;24.10;;;;;;;4.78;100.00;101893.78;5004393;28;20037;-80
2022/11/14 04:44:37;;;;;;;48.67;27.67;;;;;;;4.27;100.00;101773.53;4995408;28;20542;-82
2022/11/14 04:47:03;;;;;;;62.83;30.50;;;;;;;4.21;100.00;101745.53;5006777;28;20042;-82
2022/11/14 04:49:28;;;;;;;46.38;28.42;;;;;;;4.60;100.00;101893.78;5006730;28;20054;-81
2022/11/14 04:51:54;;;;;;;61.28;27.98;;;;;;;4.61;100.00;101916.34;5006605;28;20042;-78
2022/11/14 04:54:20;;;;;;;48.22;27.70;;;;;;;4.77;100.00;101897.19;4988167;28;20459;-75
2022/11/14 04:56:45;;;;;;;51.50;27.73;;;;;;;4.42;100.00;101815.81;4996808;28;20030;-76
2022/11/14 04:59:11;;;;;;;46.03;28.17;;;;;;;5.12;100.00;101909.22;5006879;28;20627;-76
2022/11/14 05:01:36;;;;;;;51.92;26.85;;;;;;;4.38;100.00;101793.13;5006551;28;20049;-76
2022/11/14 05:04:02;;;;;;;66.18;31.67;;;;;;;5.32;100.00;101935.31;4999439;28;20046;-77
2022/11/14 05:06:27;;;;;;;50.17;29.38;;;;;;;5.23;100.00;101921.03;5004769;28;20049;-77
2022/11/14 05:08:53;;;;;;;56.50;30.02;;;;;;;4.72;100.00;101935.06;5008731;28;20492;-76
2022/11/14 05:11:21;;;;;;;66.40;28.02;;;;;;;5.03;100.00;101917.53;5013112;28;20058;-78
2022/11/14 05:13:47;;;;;;;50.40;28.52;;;;;;;4.09;100.00;101758.81;4987637;28;20050;-78
2022/11/14 05:16:12;;;;;;;51.35;31.52;;;;;;;5.26;100.00;101920.28;5005669;28;20141;-77
2022/11/14 05:18:38;;;;;;;54.85;30.30;;;;;;;5.16;100.00;101955.41;5006279;28;20053;-77
2022/11/14 05:21:04;;;;;;;50.53;30.63;;;;;;;4.75;100.00;101847.72;5004970;28;20037;-75
2022/11/14 05:23:30;;;;;;;58.75;28.13;;;;;;;5.27;100.00;101942.91;4997715;28;20046;-78
2022/11/14 05:26:07;;;;;;;56.00;29.92;;;;;;;4.81;100.00;101823.72;4993957;28;20056;-78
2022/11/14 05:28:33;;;;;;;52.72;33.20;;;;;;;5.48;100.00;101935.19;5003372;28;20058;-79
2022/11/14 05:31:09;;;;;;;49.88;28.25;;;;;;;4.93;100.00;101808.66;5014927;28;20045;-83
2022/11/14 05:33:35;;;;;;;56.30;29.73;;;;;;;5.06;100.00;101834.41;5014848;28;20157;-77
2022/11/14 05:36:05;;;;;;;46.55;31.23;;;;;;;4.81;100.00;101802.91;5009027;28;20564;-77
2022/11/14 05:38:31;;;;;;;41.00;28.23;;;;;;;4.38;100.00;101807.00;5003182;28;20129;-78
2022/11/14 05:40:57;;;;;;;60.47;31.88;;;;;;;4.71;100.00;101808.50;4973040;28;20188;-77
2022/11/14 05:43:23;;;;;;;69.90;33.08;;;;;;;4.84;100.00;101803.03;4990327;28;20046;-79
2022/11/14 05:45:49;;;;;;;57.35;30.52;;;;;;;4.88;100.00;101802.34;5008250;28;20072;-79
2022/11/14 05:48:14;;;;;;;47.13;29.95;;;;;;;5.18;100.00;101947.69;5008834;28;20034;-79
2022/11/14 05:50:40;;;;;;;54.35;33.88;;;;;;;5.27;100.00;101963.72;5002031;28;20042;-81
2022/11/14 05:53:05;;;;;;;45.13;30.35;;;;;;;4.79;100.00;101826.22;4989959;28;20046;-79
2022/11/14 05:55:31;;;;;;;50.50;29.27;;;;;;;5.74;100.00;101959.78;5005007;28;20120;-80
2022/11/14 05:57:57;;;;;;;52.03;31.00;;;;;;;5.56;100.00;101962.44;5009348;28;20045;-79
2022/11/14 06:00:23;;;;;;;50.80;30.25;;;;;;;5.45;100.00;101969.75;5007464;28;20105;-81
2022/11/14 06:02:53;;;;;;;48.75;30.52;;;;;;;5.11;100.00;101943.00;5009500;28;20030;-79
2022/11/14 06:05:20;;;;;;;56.97;29.65;;;;;;;5.12;100.00;101950.88;5007203;28;20053;-79
2022/11/14 06:07:46;;;;;;;46.22;29.80;;;;;;;5.16;100.00;101928.50;5009339;28;20096;-76
2022/11/14 06:10:12;;;;;;;48.55;26.98;;;;;;;4.79;100.00;101890.34;5018458;28;20198;-77
2022/11/14 06:12:38;;;;;;;48.65;27.67;;;;;;;5.22;100.00;101950.50;5000964;28;20045;-76
2022/11/14 06:15:03;;;;;;;55.88;30.63;;;;;;;5.73;100.00;101965.78;5011539;28;20037;-76
2022/11/14 06:17:29;;;;;;;54.58;28.83;;;;;;;5.92;100.00;101968.41;5009258;28;20037;-78
2022/11/14 06:19:54;;;;;;;48.17;30.60;;;;;;;5.65;100.00;101975.88;5007665;28;20501;-77
2022/11/14 06:22:20;;;;;;;42.97;28.70;;;;;;;4.98;100.00;101808.88;4971839;28;20061;-81
2022/11/14 06:24:45;;;;;;;45.85;28.45;;;;;;;6.00;100.00;101934.03;4997039;28;20046;-79
2022/11/14 06:27:11;;;;;;;57.58;33.78;;;;;;;5.39;100.00;101952.97;5027359;28;20036;-75
2022/11/14 06:29:38;;;;;;;49.58;30.70;;;;;;;5.72;100.00;101974.44;5008978;28;20041;-77
2022/11/14 06:32:03;;;;;;;48.60;29.13;;;;;;;5.42;100.00;101951.41;5008102;28;20053;-80
2022/11/14 06:34:29;;;;;;;52.83;32.35;;;;;;;5.78;100.00;101966.88;5006830;28;20060;-77
2022/11/14 06:36:54;;;;;;;60.25;32.50;;;;;;;6.17;100.00;101966.91;5007795;28;20421;-79
2022/11/14 06:39:20;;;;;;;55.25;32.30;;;;;;;6.04;100.00;101918.59;5008700;28;20041;-79
2022/11/14 06:41:45;;;;;;;59.65;31.77;;;;;;;6.05;100.00;101936.00;4997208;28;21153;-81
2022/11/14 06:44:11;;;;;;;57.60;33.17;;;;;;;6.26;100.00;101942.94;5008148;28;20399;-81
2022/11/14 06:46:36;;;;;;;57.50;34.63;;;;;;;6.23;100.00;101963.69;5009173;28;20088;-81
2022/11/14 06:49:02;;;;;;;61.42;33.28;;;;;;;6.58;100.00;101967.78;5008477;28;20559;-80
2022/11/14 06:51:27;;;;;;;64.05;33.85;;;;;;;6.14;100.00;101940.72;5001751;28;20052;-80
2022/11/14 06:53:52;;;;;;;60.75;33.17;;;;;;;6.04;100.00;101852.53;5006788;28;20050;-79
2022/11/14 06:56:19;;;;;;;59.63;29.95;;;;;;;5.74;100.00;101826.97;5009005;28;20077;-80
2022/11/14 06:58:47;;;;;;;55.55;30.15;;;;;;;5.69;100.00;101833.69;5007356;28;20077;-81
2022/11/14 07:01:14;;;;;;;58.45;30.95;;;;;;;6.74;100.00;101974.47;4988236;28;20505;-79
2022/11/14 07:03:40;;;;;;;60.38;31.83;;;;;;;6.83;100.00;101969.63;5007880;28;20091;-81
2022/11/14 07:06:07;;;;;;;77.97;50.42;;;;;;;6.36;100.00;101967.69;5005141;28;20116;-75
2022/11/14 07:08:33;;;;;;;48.88;31.45;;;;;;;6.45;100.00;101955.03;4989535;28;20030;-78
2022/11/14 07:11:07;;;;;;;61.53;35.08;;;;;;;4.84;100.00;101719.81;5002272;28;20048;-77
2022/11/14 07:13:34;;;;;;;54.20;31.30;;;;;;;6.28;100.00;101931.75;5006233;28;20042;-75
2022/11/14 07:15:59;;;;;;;65.10;36.10;;;;;;;6.15;100.00;101923.34;5007358;28;20061;-78
2022/11/14 07:18:25;;;;;;;64.70;36.30;;;;;;;5.67;100.00;101814.50;5008584;28;20070;-75
2022/11/14 07:21:02;;;;;;;92.45;55.28;;;;;;;5.36;100.00;101844.44;5007532;28;20520;-80
2022/11/14 07:23:31;;;;;;;67.05;36.50;;;;;;;5.43;100.00;101825.66;4996095;28;20049;-80
2022/11/14 07:26:08;;;;;;;88.28;49.05;;;;;;;5.86;100.00;101874.34;5008781;28;20054;-81
2022/11/14 07:28:41;;;;;;;62.92;34.70;;;;;;;5.52;100.00;101830.34;5008853;28;20485;-82
2022/11/14 07:31:08;;;;;;;;;;;;;;;6.36;100.00;101965.97;5013961;28;20042;-75
2022/11/14 07:33:34;;;;;;;76.85;34.92;;;;;;;6.41;100.00;101950.50;4981235;28;20016;-78
2022/11/14 07:36:00;;;;;;;58.22;33.92;;;;;;;6.59;100.00;101945.19;5008108;28;20579;-80
2022/11/14 07:38:26;;;;;;;68.43;31.10;;;;;;;6.40;100.00;101849.69;5008067;28;20045;-80
2022/11/14 07:40:59;;;;;;;59.60;33.75;;;;;;;7.05;100.00;101954.84;5010812;28;20087;-77
2022/11/14 07:43:25;;;;;;;58.35;34.15;;;;;;;6.89;100.00;101951.63;5027744;28;20052;-77
2022/11/14 07:45:50;;;;;;;53.28;31.42;;;;;;;6.88;100.00;101962.91;5009922;28;20046;-78
2022/11/14 07:48:16;;;;;;;69.35;46.92;;;;;;;7.16;100.00;101943.09;5007740;28;20069;-78
2022/11/14 07:50:42;;;;;;;57.65;40.05;;;;;;;7.08;100.00;101947.13;5004578;28;20041;-77
2022/11/14 07:53:08;;;;;;;54.13;35.97;;;;;;;7.09;100.00;101914.97;5007022;28;20056;-76
2022/11/14 07:55:37;;;;;;;60.60;34.63;;;;;;;7.52;100.00;101934.88;5005909;28;20562;-83
2022/11/14 07:58:02;;;;;;;67.00;43.75;;;;;;;7.05;100.00;101916.59;5007284;28;20049;-76
2022/11/14 08:00:28;;;;;;;67.78;45.55;;;;;;;6.34;100.00;101805.97;4994121;28;20061;-75
2022/11/14 08:02:54;;;;;;;65.78;33.58;;;;;;;6.65;100.00;101808.09;5007454;28;20113;-76
2022/11/14 08:05:20;;;;;;;69.80;44.92;;;;;;;6.85;100.00;101814.06;5005375;28;20052;-76
2022/11/14 08:07:45;;;;;;;73.93;48.58;;;;;;;7.18;100.00;101913.59;4997481;28;20043;-75
2022/11/14 08:10:13;;;;;;;79.43;48.13;;;;;;;7.51;100.00;101943.53;5001305;28;20042;-75
2022/11/14 08:12:39;;;;;;;66.03;35.13;;;;;;;7.41;100.00;101926.66;5001829;28;20561;-75
2022/11/14 08:15:10;;;;;;;84.00;49.47;;;;;;;7.24;100.00;101846.81;5015385;28;20029;-74
2022/11/14 08:17:36;;;;;;;85.50;45.97;;;;;;;7.93;100.00;101948.56;4988338;28;20092;-79
2022/11/14 08:20:03;;;;;;;72.55;48.75;;;;;;;7.71;100.00;101942.56;5004132;28;20166;-76
2022/11/14 08:22:29;;;;;;;70.63;44.38;;;;;;;6.68;100.00;101771.69;5011287;28;20076;-75
2022/11/14 08:24:55;;;;;;;79.13;48.78;;;;;;;7.00;100.00;101807.63;5005627;28;20513;-75
2022/11/14 08:27:21;;;;;;;71.80;45.47;;;;;;;8.13;100.00;101946.66;5005250;28;20112;-75
2022/11/14 08:29:46;;;;;;;61.30;40.25;;;;;;;8.33;100.00;101952.53;4996083;28;20030;-74
2022/11/14 08:32:12;;;;;;;80.80;46.92;;;;;;;8.27;100.00;101950.63;5011177;28;20041;-74
2022/11/14 08:34:38;;;;;;;69.72;45.67;;;;;;;7.56;100.00;101963.78;5005271;28;20077;-75
2022/11/14 08:37:04;;;;;;;69.95;45.50;;;;;;;7.25;100.00;101841.63;5000946;28;20046;-74
2022/11/14 08:39:29;;;;;;;78.30;49.05;;;;;;;7.69;100.00;101909.38;4985976;28;20042;-75
2022/11/14 08:41:55;;;;;;;69.22;42.80;;;;;;;8.23;100.00;101930.44;5006292;28;20136;-75
2022/11/14 08:44:20;;;;;;;71.68;44.97;;;;;;;8.03;100.00;101946.31;5011022;28;20054;-75
2022/11/14 08:46:46;;;;;;;79.53;44.40;;;;;;;8.14;100.00;101936.22;5006180;28;20517;-77
2022/11/14 08:49:11;;;;;;;71.10;45.25;;;;;;;7.96;100.00;101931.28;4988023;28;20090;-76
2022/11/14 08:51:37;;;;;;;80.40;43.50;;;;;;;7.68;100.00;101804.00;4989868;28;20041;-76
2022/11/14 08:54:02;;;;;;;57.80;39.22;;;;;;;7.70;100.00;101804.94;5008007;28;20132;-74
2022/11/14 08:56:28;;;;;;;70.80;43.92;;;;;;;7.94;100.00;101903.31;5006017;28;20141;-75
2022/11/14 08:58:53;;;;;;;76.28;42.78;;;;;;;7.66;100.00;101803.06;4974086;28;20706;-76
2022/11/14 09:01:19;;;;;;;69.32;43.75;;;;;;;8.58;100.00;101900.25;5005296;28;20045;-75
2022/11/14 09:03:44;;;;;;;69.00;45.67;;;;;;;8.62;100.00;101909.09;5019524;28;20157;-77
2022/11/14 09:06:10;;;;;;;76.35;50.60;;;;;;;7.61;100.00;101808.13;5014200;28;20033;-74
2022/11/14 09:08:35;;;;;;;93.97;53.53;;;;;;;8.28;100.00;101860.88;4991922;28;20049;-75
2022/11/14 09:11:02;;;;;;;85.03;58.88;;;;;;;7.95;100.00;101853.66;5009815;28;20441;-81
2022/11/14 09:13:30;;;;;;;69.25;49.25;;;;;;;8.00;100.00;101802.44;4999815;28;20054;-76
2022/11/14 09:15:56;;;;;;;81.68;45.55;;;;;;;8.50;100.00;101872.97;5006542;28;20068;-74
2022/11/14 09:18:21;;;;;;;77.22;46.83;;;;;;;8.99;100.00;101918.06;5002489;28;20760;-76
2022/11/14 09:20:47;;;;;;;62.33;41.83;;;;;;;9.13;100.00;101882.75;4984700;28;20045;-75
2022/11/14 09:23:12;;;;;;;65.57;41.80;;;;;;;7.80;100.00;101769.56;5003783;28;20042;-75
2022/11/14 09:25:38;;;;;;;71.38;42.22;;;;;;;8.77;100.00;101908.69;5001047;28;20053;-74
2022/11/14 09:28:05;;;;;;;68.60;43.85;;;;;;;8.91;100.00;101865.50;5021258;28;20130;-75
2022/11/14 09:30:32;;;;;;;62.92;40.08;;;;;;;8.79;100.00;101879.09;5006830;28;20405;-75
2022/11/14 09:33:00;;;;;;;64.28;39.20;;;;;;;9.09;100.00;101896.59;5009985;28;20192;-75
2022/11/14 09:35:26;;;;;;;63.35;41.53;;;;;;;9.09;100.00;101860.81;5013756;28;20046;-74
2022/11/14 09:38:00;;;;;;;55.38;38.63;;;;;;;8.12;100.00;101819.38;4983768;28;20559;-75
2022/11/14 09:40:26;;;;;;;58.13;36.97;;;;;;;8.74;100.00;101856.25;5007011;28;20505;-75
2022/11/14 09:43:45;;;;;;;63.08;38.33;;;;;;;8.92;100.00;101885.63;5009985;28;20489;-75
2022/11/14 09:46:37;;;;;;;54.08;37.67;;;;;;;8.63;100.00;101799.22;4966860;28;20146;-75
2022/11/14 09:49:02;;;;;;;60.50;37.40;;;;;;;9.13;98.63;101867.03;4997516;28;20064;-75
2022/11/14 09:51:34;;;;;;;66.07;41.58;;;;;;;9.09;99.00;101862.53;5007944;28;20034;-75
2022/11/14 09:54:19;;;;;;;68.07;39.58;;;;;;;8.97;98.64;101851.72;5010349;28;20115;-74
2022/11/14 09:56:45;;;;;;;67.43;39.45;;;;;;;9.16;98.10;101890.69;5016689;28;20054;-75
2022/11/14 09:59:11;;;;;;;58.33;38.55;;;;;;;8.04;99.26;101743.31;4996681;28;20104;-72
2022/11/14 10:02:16;;;;;;;54.80;35.88;;;;;;;8.98;100.00;101871.81;5008093;28;20049;-73
2022/11/14 10:04:50;;;;;;;69.95;38.88;;;;;;;9.48;99.27;101869.75;5002685;28;20057;-72
2022/11/14 10:07:16;;;;;;;65.72;38.97;;;;;;;9.07;99.19;101872.09;5003562;28;20065;-73
2022/11/14 10:10:03;;;;;;;63.08;38.30;;;;;;;9.31;98.74;101858.81;5009110;28;20054;-72
2022/11/14 10:12:28;;;;;;;57.58;36.20;;;;;;;9.30;98.01;101851.81;5007811;28;21048;-73
2022/11/14 10:15:07;;;;;;;57.75;38.22;;;;;;;9.49;96.31;101850.59;5008197;28;20030;-73
2022/11/14 10:17:38;;;;;;;55.40;35.28;;;;;;;9.60;96.84;101856.09;4990623;28;20053;-73
2022/11/14 10:20:32;;;;;;;75.88;43.45;;;;;;;9.87;95.48;101848.09;4990313;28;20069;-73
2022/11/14 10:23:16;;;;;;;68.25;36.80;;;;;;;10.09;95.17;101854.75;5009355;28;20054;-74
2022/11/14 10:26:09;;;;;;;65.28;38.97;;;;;;;10.03;93.46;101828.41;5003160;28;20123;-73
2022/11/14 10:28:40;;;;;;;76.70;40.17;;;;;;;10.04;93.56;101849.41;5001906;28;20042;-73
2022/11/14 10:31:30;;;;;;;60.47;34.95;;;;;;;10.01;93.28;101843.22;5007191;28;20668;-75
2022/11/14 10:34:12;;;;;;;59.00;34.00;;;;;;;9.43;93.91;101835.56;5004366;28;20061;-73
2022/11/14 10:36:56;;;;;;;53.22;34.42;;;;;;;8.33;94.74;101612.56;5017391;28;20092;-76
2022/11/14 10:39:41;;;;;;;;;;;;;;;9.50;95.24;101845.41;4998981;28;20172;-72
2022/11/14 10:42:24;;;;;;;48.50;33.33;;;;;;;9.13;96.22;101819.00;4991041;28;19961;-74
2022/11/14 10:45:00;;;;;;;61.35;35.95;;;;;;;8.81;96.22;101702.06;4999861;28;20034;-74
2022/11/14 10:47:32;;;;;;;54.70;34.58;;;;;;;9.20;95.54;101718.81;5008145;28;20541;-74
2022/11/14 10:50:12;;;;;;;56.42;34.42;;;;;;;8.25;95.05;101604.53;5007574;28;20049;-74
2022/11/14 10:52:42;;;;;;;56.72;34.75;;;;;;;9.04;94.13;101705.31;5004512;28;20053;-73
2022/11/14 10:55:16;;;;;;;59.90;35.63;;;;;;;9.22;94.21;101718.00;5009435;28;20049;-74
2022/11/14 10:57:44;;;;;;;60.03;35.08;;;;;;;9.49;94.84;101766.75;5011057;28;20155;-75
2022/11/14 11:00:16;;;;;;;50.63;33.38;;;;;;;9.62;94.15;101821.25;5020823;28;20049;-73
2022/11/14 11:02:51;;;;;;;64.63;37.40;;;;;;;9.54;94.35;101814.03;5002602;28;20068;-73
2022/11/14 11:05:19;;;;;;;61.50;35.28;;;;;;;8.69;94.37;101700.84;5022146;28;20053;-74
2022/11/14 11:13:35;;;;;;;62.78;38.53;;;;;;;9.57;94.52;101824.59;5008930;28;20567;-74
2022/11/14 11:16:03;;;;;;;;;;;;;;;9.84;95.01;101811.31;5002786;28;20042;-75
2022/11/14 11:18:34;;;;;;;55.65;33.65;;;;;;;9.76;93.97;101816.34;5007876;28;19914;-74